Terminal Aerodrome Forecast
Issued by NWS

Home | Current Version | Previous Version | Text Only | Print | Product List | Glossary On
Versions: 1 2 3 4 5 6 7 8 9 10 11 12 13 14 15 16 17 18 19 20 21 22 23 24 25
000
FTUS45 KVEF 080537
TAFVGT
TAF
KVGT 080537Z 0806/0906 32004KT P6SM FEW120 BKN160 BKN220
     FM081500 VRB06KT P6SM SKC
     FM081900 17014G22KT P6SM FEW120
     FM090500 20012KT P6SM SKC=

USA.gov is the U.S. government's official web portal to all federal, state and local government web resources and services.